Time;durP1;ratioP1;P1;durP2;ratioP2;P2;SDS_P1;SDS_P2;PMS_P1;PMS_P2;Temp;Humidity;BMP_temperature;BMP_pressure;BME280_temperature;BME280_humidity;BME280_pressure;Samples;Min_cycle;Max_cycle;Signal;HPM_P1;HPM_P2
2022/03/16 00:00:22;;;;;;;16.13;10.05;;;;;;;9.33;100.00;96935.19;5050923;28;20527;-46
2022/03/16 00:02:51;;;;;;;15.57;10.70;;;;;;;9.27;100.00;96936.50;5051805;28;20415;-46
2022/03/16 00:05:19;;;;;;;17.52;10.55;;;;;;;9.21;100.00;96932.56;5052045;28;20088;-45
2022/03/16 00:07:47;;;;;;;17.65;10.60;;;;;;;9.23;100.00;96938.56;5056309;28;20064;-50
2022/03/16 00:10:15;;;;;;;18.27;10.63;;;;;;;9.17;100.00;96941.66;5051294;28;20072;-45
2022/03/16 00:12:45;;;;;;;15.63;10.40;;;;;;;9.18;100.00;96930.19;5051611;28;20520;-48
2022/03/16 00:15:13;;;;;;;18.10;10.80;;;;;;;9.17;100.00;96938.22;5051630;28;20064;-48
2022/03/16 00:17:43;;;;;;;16.20;11.65;;;;;;;9.27;100.00;96941.75;5051623;28;20080;-47
2022/03/16 00:20:12;;;;;;;17.40;11.07;;;;;;;9.15;100.00;96942.75;5050673;28;21213;-45
2022/03/16 00:22:41;;;;;;;14.98;10.77;;;;;;;9.11;100.00;96946.59;5051699;28;20080;-47
2022/03/16 00:36:45;;;;;;;16.55;12.40;;;;;;;9.14;100.00;96947.19;5059043;28;20071;-45
2022/03/16 00:39:13;;;;;;;15.68;11.60;;;;;;;9.13;100.00;96942.88;5054105;28;20474;-48
2022/03/16 00:41:41;;;;;;;19.10;13.63;;;;;;;9.14;100.00;96951.59;5050649;28;20084;-46
2022/03/16 00:44:09;;;;;;;20.05;13.90;;;;;;;9.10;100.00;96950.19;5050388;28;21280;-49
2022/03/16 00:46:38;;;;;;;22.63;12.55;;;;;;;9.06;100.00;96946.97;5050721;28;20464;-45
2022/03/16 00:49:06;;;;;;;17.27;12.93;;;;;;;9.07;100.00;96950.44;5050640;28;20049;-48
2022/03/16 00:51:34;;;;;;;18.15;14.48;;;;;;;9.09;100.00;96946.72;5050675;28;20077;-46
2022/03/16 00:54:04;;;;;;;22.00;15.73;;;;;;;9.06;100.00;96948.78;5054112;28;20075;-50
2022/03/16 00:56:32;;;;;;;22.55;15.98;;;;;;;8.92;100.00;96942.81;5051355;28;20080;-48
2022/03/16 00:59:00;;;;;;;18.13;13.27;;;;;;;8.90;100.00;96939.47;5050134;28;20119;-47
2022/03/16 01:01:28;;;;;;;22.30;14.25;;;;;;;8.92;100.00;96937.56;5050523;28;20072;-48
2022/03/16 01:03:57;;;;;;;22.13;15.77;;;;;;;8.92;100.00;96936.72;5044948;28;20068;-46
2022/03/16 01:06:25;;;;;;;22.30;17.27;;;;;;;8.95;100.00;96933.84;5043872;28;20481;-46
2022/03/16 01:08:53;;;;;;;19.50;14.30;;;;;;;8.77;100.00;96942.25;5050399;28;20534;-49
2022/03/16 01:11:23;;;;;;;24.25;14.80;;;;;;;8.90;100.00;96936.81;5045047;28;20072;-47
2022/03/16 01:13:51;;;;;;;25.52;17.85;;;;;;;8.98;100.00;96938.84;5044154;28;20072;-52
2022/03/16 01:16:19;;;;;;;23.70;17.58;;;;;;;8.94;100.00;96946.13;5050505;28;20068;-49
2022/03/16 01:18:47;;;;;;;25.23;16.75;;;;;;;8.89;100.00;96937.78;5050142;28;20072;-53
2022/03/16 01:21:15;;;;;;;23.48;17.73;;;;;;;8.87;100.00;96941.50;5050125;28;20546;-49
2022/03/16 01:23:43;;;;;;;19.20;12.77;;;;;;;8.79;100.00;96940.31;5044478;28;20068;-48
2022/03/16 01:26:12;;;;;;;24.70;13.68;;;;;;;8.71;100.00;96940.09;5050889;28;20084;-49
2022/03/16 01:28:41;;;;;;;24.45;16.40;;;;;;;8.88;100.00;96938.75;5049702;28;20541;-50
2022/03/16 01:31:09;;;;;;;16.33;11.40;;;;;;;8.79;100.00;96935.06;5050031;28;20073;-45
2022/03/16 01:33:38;;;;;;;25.52;16.63;;;;;;;8.85;100.00;96936.38;5044552;28;20071;-47
2022/03/16 01:36:06;;;;;;;23.23;14.68;;;;;;;8.78;100.00;96936.03;5049679;28;20052;-45
2022/03/16 01:38:34;;;;;;;24.65;14.68;;;;;;;8.90;100.00;96939.47;5049754;28;20076;-45
2022/03/16 01:41:02;;;;;;;24.58;16.73;;;;;;;8.86;100.00;96937.19;5049960;28;20091;-47
2022/03/16 01:43:30;;;;;;;21.27;13.75;;;;;;;8.82;100.00;96936.63;5049691;28;20069;-46
2022/03/16 01:46:00;;;;;;;16.50;10.63;;;;;;;8.73;100.00;96935.53;5046342;28;20531;-50
2022/03/16 01:48:28;;;;;;;21.85;14.60;;;;;;;8.77;100.00;96941.38;5049399;28;20060;-48
2022/03/16 01:50:57;;;;;;;27.30;17.80;;;;;;;8.87;100.00;96944.97;5049615;28;20080;-48
2022/03/16 01:53:26;;;;;;;25.20;18.10;;;;;;;8.95;100.00;96941.75;5051779;28;20088;-49
2022/03/16 01:55:54;;;;;;;26.85;18.10;;;;;;;8.95;100.00;96942.56;5049476;28;20068;-46
2022/03/16 01:58:23;;;;;;;24.92;16.00;;;;;;;8.87;100.00;96934.44;5049353;28;20076;-49
2022/03/16 02:00:51;;;;;;;25.52;15.82;;;;;;;8.75;100.00;96945.94;5049193;28;20060;-45
2022/03/16 02:03:21;;;;;;;28.48;20.23;;;;;;;8.85;100.00;96940.81;5049623;28;20064;-46
2022/03/16 02:05:49;;;;;;;28.67;19.17;;;;;;;8.76;100.00;96953.69;5049904;28;20456;-45
2022/03/16 02:08:17;;;;;;;27.00;17.42;;;;;;;8.70;100.00;96951.53;5052441;28;20479;-52
2022/03/16 02:10:45;;;;;;;29.98;19.17;;;;;;;8.78;100.00;96945.72;5049505;28;20524;-49
2022/03/16 02:13:14;;;;;;;29.63;19.25;;;;;;;8.71;100.00;96950.63;5049560;28;20069;-47
2022/03/16 02:15:42;;;;;;;31.90;21.48;;;;;;;8.91;100.00;96950.81;5045418;28;20061;-45
2022/03/16 02:18:10;;;;;;;34.42;22.02;;;;;;;8.82;100.00;96947.13;5049257;28;20598;-49
2022/03/16 02:20:39;;;;;;;34.50;21.75;;;;;;;8.87;100.00;96944.13;5049354;28;20084;-48
2022/03/16 02:23:09;;;;;;;33.72;21.77;;;;;;;8.76;100.00;96952.88;5048955;28;20555;-52
2022/03/16 02:25:49;;;;;;;33.15;20.88;;;;;;;8.71;100.00;96944.53;5049090;28;20067;-46
2022/03/16 02:28:17;;;;;;;34.15;22.02;;;;;;;8.72;100.00;96952.28;5047264;28;20064;-44
2022/03/16 02:30:45;;;;;;;28.48;18.60;;;;;;;8.65;100.00;96956.34;5048609;28;20071;-45
2022/03/16 02:33:13;;;;;;;36.97;23.20;;;;;;;8.77;100.00;96957.16;5049117;28;20079;-45
2022/03/16 02:35:42;;;;;;;31.95;20.13;;;;;;;8.66;100.00;96971.16;5049733;28;20092;-48
2022/03/16 02:38:11;;;;;;;29.25;18.63;;;;;;;8.55;100.00;96960.66;5029814;28;21366;-49
2022/03/16 02:40:40;;;;;;;37.25;21.85;;;;;;;8.56;100.00;96964.94;5028166;28;20064;-50
2022/03/16 02:43:08;;;;;;;37.22;25.05;;;;;;;8.64;100.00;96970.47;5040490;28;20068;-46
2022/03/16 02:45:36;;;;;;;37.30;24.15;;;;;;;8.65;100.00;96966.03;5048882;28;20469;-45
2022/03/16 02:48:05;;;;;;;37.40;24.75;;;;;;;8.71;100.00;96968.19;5046597;28;20664;-46
2022/03/16 02:50:33;;;;;;;37.03;24.05;;;;;;;8.75;100.00;96978.34;5048930;28;20075;-47
2022/03/16 02:53:01;;;;;;;38.47;25.92;;;;;;;8.79;100.00;96987.66;5049269;28;20068;-47
2022/03/16 02:55:47;;;;;;;41.30;26.02;;;;;;;8.62;100.00;96979.41;5048429;28;20075;-51
2022/03/16 02:58:16;;;;;;;37.90;23.52;;;;;;;8.49;100.00;96988.25;5048879;28;20547;-50
2022/03/16 03:00:44;;;;;;;37.53;24.55;;;;;;;8.61;100.00;96989.09;5048410;28;20061;-45
2022/03/16 03:03:13;;;;;;;38.10;23.13;;;;;;;8.48;100.00;96993.63;5048514;28;20087;-46
2022/03/16 03:05:41;;;;;;;37.42;23.00;;;;;;;8.45;100.00;96996.50;5049193;28;20080;-47
2022/03/16 03:08:09;;;;;;;35.28;22.02;;;;;;;8.42;100.00;97000.19;5051103;28;20531;-45
2022/03/16 03:10:37;;;;;;;32.72;21.80;;;;;;;8.42;100.00;97002.81;5048235;28;20064;-49
2022/03/16 03:13:07;;;;;;;32.83;21.67;;;;;;;8.39;100.00;96996.97;5048171;28;20064;-44
2022/03/16 03:15:35;;;;;;;27.55;17.83;;;;;;;8.14;100.00;97001.41;5048476;28;20527;-48
2022/03/16 03:18:04;;;;;;;23.50;14.68;;;;;;;8.02;100.00;97007.63;5048230;28;20053;-45
2022/03/16 03:20:32;;;;;;;24.23;16.10;;;;;;;8.11;100.00;97009.53;5048200;28;20076;-47
2022/03/16 03:23:00;;;;;;;25.67;18.02;;;;;;;8.11;100.00;97001.66;5048578;28;20075;-45
2022/03/16 03:25:28;;;;;;;28.75;19.33;;;;;;;7.96;100.00;97008.06;5043039;28;20069;-47
2022/03/16 03:27:57;;;;;;;28.58;17.45;;;;;;;7.87;100.00;97014.00;5048199;28;21098;-47
2022/03/16 03:30:27;;;;;;;30.23;18.98;;;;;;;7.73;100.00;97025.53;5046633;28;20549;-50
2022/03/16 03:32:56;;;;;;;31.15;18.52;;;;;;;7.81;100.00;97018.78;5048292;28;20565;-50
2022/03/16 03:35:24;;;;;;;32.83;20.23;;;;;;;7.76;100.00;97027.94;5049065;28;20084;-47
2022/03/16 03:37:54;;;;;;;27.35;15.98;;;;;;;7.61;100.00;97028.09;5049088;28;20072;-49
2022/03/16 03:40:22;;;;;;;30.90;19.45;;;;;;;7.51;100.00;97028.91;5047548;28;20076;-47
2022/03/16 03:42:51;;;;;;;27.50;16.80;;;;;;;7.58;100.00;97027.50;5048269;28;20076;-49
2022/03/16 03:45:19;;;;;;;30.35;20.42;;;;;;;7.74;100.00;97035.94;5048041;28;20068;-45
2022/03/16 03:47:49;;;;;;;32.28;19.92;;;;;;;7.85;100.00;97041.22;5048202;28;20088;-51
2022/03/16 03:50:17;;;;;;;30.75;18.13;;;;;;;7.69;100.00;97042.47;5047930;28;20080;-47
2022/03/16 03:52:45;;;;;;;27.88;17.27;;;;;;;7.51;100.00;97040.22;5048088;28;20045;-47
2022/03/16 03:55:13;;;;;;;28.75;18.33;;;;;;;7.43;100.00;97041.72;5047883;28;20068;-46
2022/03/16 03:57:42;;;;;;;31.13;19.98;;;;;;;7.65;100.00;97049.72;5047994;28;20472;-47
2022/03/16 04:00:11;;;;;;;26.80;16.85;;;;;;;7.51;100.00;97047.25;5047240;28;20064;-52
2022/03/16 04:02:39;;;;;;;26.20;15.50;;;;;;;7.28;100.00;97047.13;5048908;28;20100;-50
2022/03/16 04:05:09;;;;;;;33.30;20.83;;;;;;;7.52;100.00;97043.69;5047469;28;20640;-48
2022/03/16 04:07:37;;;;;;;31.13;19.90;;;;;;;7.36;100.00;97042.19;5052223;28;20076;-51
2022/03/16 04:10:07;;;;;;;36.00;22.77;;;;;;;7.75;100.00;97052.50;5047524;28;20476;-49
2022/03/16 04:12:35;;;;;;;36.65;22.17;;;;;;;7.67;100.00;97047.81;5047497;28;20072;-52
2022/03/16 04:15:04;;;;;;;37.85;24.13;;;;;;;7.60;100.00;97051.81;5047747;28;20072;-48
2022/03/16 04:17:33;;;;;;;32.22;21.13;;;;;;;7.65;100.00;97057.59;5048487;28;20060;-48
2022/03/16 04:20:01;;;;;;;34.80;21.60;;;;;;;7.82;100.00;97067.69;5049427;28;20068;-46
2022/03/16 04:22:31;;;;;;;31.50;20.38;;;;;;;7.65;100.00;97060.22;5051049;28;20083;-48
2022/03/16 04:25:02;;;;;;;33.63;21.23;;;;;;;7.63;100.00;97062.09;5051436;28;20094;-46
2022/03/16 04:27:30;;;;;;;32.30;20.65;;;;;;;7.71;100.00;97065.03;5044129;28;20451;-49
2022/03/16 04:29:59;;;;;;;33.20;20.77;;;;;;;7.78;100.00;97068.88;5045023;28;20072;-51
2022/03/16 04:32:27;;;;;;;32.40;20.42;;;;;;;7.80;100.00;97074.00;5051746;28;20076;-50
2022/03/16 04:34:55;;;;;;;31.33;19.92;;;;;;;8.06;100.00;97077.34;5051141;28;20076;-50
2022/03/16 04:37:23;;;;;;;31.13;19.58;;;;;;;7.87;100.00;97077.03;5051513;28;20069;-50
2022/03/16 04:39:53;;;;;;;30.35;19.15;;;;;;;7.83;100.00;97072.00;5050959;28;20063;-50
2022/03/16 04:42:21;;;;;;;31.67;21.70;;;;;;;7.62;100.00;97081.44;5051045;28;20061;-50
2022/03/16 04:44:49;;;;;;;32.25;20.38;;;;;;;7.78;100.00;97084.63;5051061;28;20077;-52
2022/03/16 04:47:17;;;;;;;31.90;20.58;;;;;;;7.93;100.00;97087.91;5051146;28;20554;-49
2022/03/16 04:49:46;;;;;;;28.98;19.85;;;;;;;7.96;100.00;97079.81;5050997;28;20052;-49
2022/03/16 04:52:14;;;;;;;31.33;21.30;;;;;;;7.96;100.00;97078.97;5050332;28;20070;-50
2022/03/16 04:54:42;;;;;;;33.03;21.20;;;;;;;7.97;100.00;97078.03;5051249;28;20125;-48
2022/03/16 04:57:12;;;;;;;34.10;22.20;;;;;;;7.84;100.00;97085.94;5050945;28;20076;-47
2022/03/16 04:59:40;;;;;;;30.02;19.30;;;;;;;7.79;100.00;97082.84;5050845;28;20096;-51
2022/03/16 05:02:09;;;;;;;29.85;19.58;;;;;;;7.68;100.00;97086.25;5049583;28;20072;-52
2022/03/16 05:04:37;;;;;;;29.13;19.80;;;;;;;7.70;100.00;97092.22;5050553;28;20071;-50
2022/03/16 05:07:06;;;;;;;29.25;18.88;;;;;;;7.77;100.00;97089.97;5053796;28;20068;-46
2022/03/16 05:09:34;;;;;;;31.17;18.98;;;;;;;7.88;100.00;97092.69;5050509;28;20065;-46
2022/03/16 05:12:03;;;;;;;29.42;19.05;;;;;;;7.76;100.00;97093.56;5050753;28;20511;-48
2022/03/16 05:14:33;;;;;;;28.65;19.55;;;;;;;7.63;100.00;97098.03;5051257;28;20594;-52
2022/03/16 05:17:01;;;;;;;28.90;19.25;;;;;;;7.92;100.00;97098.53;5046119;28;20064;-46
2022/03/16 05:19:30;;;;;;;28.45;19.90;;;;;;;7.97;100.00;97106.91;5049995;28;20088;-52
2022/03/16 05:21:58;;;;;;;28.98;20.02;;;;;;;7.80;100.00;97105.50;5046662;28;20064;-47
2022/03/16 05:24:27;;;;;;;28.60;19.55;;;;;;;7.73;100.00;97110.38;5050131;28;20068;-47
2022/03/16 05:26:55;;;;;;;29.38;18.80;;;;;;;7.82;100.00;97107.09;5049971;28;20085;-47
2022/03/16 05:29:24;;;;;;;28.35;18.65;;;;;;;7.94;100.00;97115.84;5050332;28;20133;-45
2022/03/16 05:31:53;;;;;;;29.27;19.25;;;;;;;7.95;100.00;97120.16;5047211;28;20072;-45
2022/03/16 05:34:21;;;;;;;28.42;18.98;;;;;;;7.93;100.00;97129.09;5050120;28;20068;-46
2022/03/16 05:36:49;;;;;;;27.25;19.33;;;;;;;8.01;100.00;97132.00;5054834;28;20060;-47
2022/03/16 05:39:17;;;;;;;27.92;18.63;;;;;;;8.13;100.00;97138.16;5049637;28;20471;-47
2022/03/16 05:41:46;;;;;;;30.13;19.92;;;;;;;7.90;100.00;97138.03;5049830;28;20500;-47
2022/03/16 05:44:14;;;;;;;28.20;18.50;;;;;;;8.02;100.00;97141.56;5050055;28;20105;-48
2022/03/16 05:46:42;;;;;;;27.20;18.67;;;;;;;8.04;100.00;97145.75;5050041;28;20076;-50
2022/03/16 05:49:12;;;;;;;28.73;19.95;;;;;;;8.04;100.00;97147.53;5049579;28;20073;-47
2022/03/16 05:51:40;;;;;;;30.52;19.23;;;;;;;7.91;100.00;97155.47;5049639;28;20171;-48
2022/03/16 05:54:08;;;;;;;31.02;19.25;;;;;;;7.78;100.00;97165.19;5056217;28;20072;-49
2022/03/16 05:56:36;;;;;;;31.38;20.50;;;;;;;7.87;100.00;97163.69;5049910;28;20088;-53
2022/03/16 05:59:04;;;;;;;30.45;20.52;;;;;;;7.55;100.00;97165.03;5049557;28;20064;-47
2022/03/16 06:01:33;;;;;;;30.73;20.58;;;;;;;7.75;100.00;97168.88;5049344;28;20466;-47
2022/03/16 06:04:01;;;;;;;32.33;21.67;;;;;;;7.87;100.00;97171.56;5049378;28;20495;-48
2022/03/16 06:06:31;;;;;;;33.53;21.42;;;;;;;8.00;100.00;97170.56;5052548;28;20804;-45
2022/03/16 06:08:59;;;;;;;33.83;20.92;;;;;;;8.03;100.00;97167.72;5048951;28;20064;-48
2022/03/16 06:11:29;;;;;;;33.03;22.15;;;;;;;8.02;100.00;97163.41;5049673;28;20089;-49
2022/03/16 06:13:57;;;;;;;33.60;22.47;;;;;;;7.90;100.00;97176.59;5049174;28;20461;-53
2022/03/16 06:16:25;;;;;;;34.40;21.77;;;;;;;7.86;100.00;97170.72;5048936;28;20076;-45
2022/03/16 06:18:54;;;;;;;33.60;22.63;;;;;;;7.81;100.00;97178.94;5049094;28;20087;-49
2022/03/16 06:21:22;;;;;;;34.50;22.42;;;;;;;7.99;100.00;97179.41;5049117;28;20072;-46
2022/03/16 06:23:51;;;;;;;33.30;23.23;;;;;;;7.74;100.00;97179.47;5048890;28;20092;-47
2022/03/16 06:26:20;;;;;;;35.42;24.30;;;;;;;7.72;100.00;97182.22;5048863;28;20108;-52
2022/03/16 06:28:48;;;;;;;35.00;24.08;;;;;;;8.19;100.00;97191.09;5048831;28;20079;-50
2022/03/16 06:31:16;;;;;;;37.67;23.60;;;;;;;8.30;100.00;97183.25;5048495;28;20071;-45
2022/03/16 06:33:44;;;;;;;35.58;24.02;;;;;;;8.21;100.00;97183.91;5064394;28;20061;-46
2022/03/16 06:36:12;;;;;;;33.75;22.63;;;;;;;8.33;100.00;97190.91;5052987;28;20478;-47
2022/03/16 06:38:41;;;;;;;36.45;24.25;;;;;;;8.38;100.00;97187.97;5048484;28;20523;-45
2022/03/16 06:41:20;;;;;;;34.15;23.85;;;;;;;8.46;100.00;97190.84;5045542;28;20528;-49
2022/03/16 06:43:48;;;;;;;36.10;23.92;;;;;;;8.59;100.00;97193.44;5048982;28;20080;-51
2022/03/16 06:46:16;;;;;;;35.08;23.13;;;;;;;8.50;100.00;97196.75;5048671;28;20663;-45
2022/03/16 06:48:45;;;;;;;36.35;24.13;;;;;;;8.54;100.00;97203.47;5048602;28;20553;-51
2022/03/16 06:51:13;;;;;;;36.53;24.90;;;;;;;8.51;100.00;97203.69;5048371;28;20068;-49
2022/03/16 06:53:41;;;;;;;36.47;24.23;;;;;;;8.55;100.00;97202.50;5055111;28;20074;-48
2022/03/16 06:56:09;;;;;;;34.28;22.40;;;;;;;8.66;100.00;97212.22;5047970;28;21528;-48
2022/03/16 06:58:39;;;;;;;33.42;22.15;;;;;;;8.50;100.00;97210.75;5048464;28;20095;-51
2022/03/16 07:01:07;;;;;;;31.80;22.27;;;;;;;8.29;100.00;97209.63;5043346;28;20079;-48
2022/03/16 07:03:35;;;;;;;30.85;20.40;;;;;;;7.79;100.00;97214.94;5048462;28;20068;-51
2022/03/16 07:06:04;;;;;;;29.20;20.08;;;;;;;7.97;100.00;97211.97;5050558;28;20063;-53
2022/03/16 07:08:32;;;;;;;32.08;20.70;;;;;;;7.88;100.00;97221.34;5048785;28;20138;-49
2022/03/16 07:11:00;;;;;;;28.73;21.38;;;;;;;8.11;100.00;97224.09;5044542;28;20074;-52
2022/03/16 07:13:28;;;;;;;28.55;20.90;;;;;;;7.88;100.00;97228.38;5048517;28;20060;-49
2022/03/16 07:15:58;;;;;;;31.10;20.55;;;;;;;7.93;100.00;97234.16;5048383;28;20064;-50
2022/03/16 07:18:26;;;;;;;27.75;20.17;;;;;;;7.79;100.00;97229.88;5048417;28;20065;-48
2022/03/16 07:20:54;;;;;;;28.58;19.80;;;;;;;7.88;100.00;97226.59;5048604;28;20444;-48
2022/03/16 07:23:23;;;;;;;24.63;18.13;;;;;;;7.89;100.00;97232.69;5048138;28;20705;-48
2022/03/16 07:25:52;;;;;;;31.42;20.40;;;;;;;8.04;100.00;97236.84;5048269;28;20060;-45
2022/03/16 07:28:21;;;;;;;30.15;20.50;;;;;;;7.78;100.00;97239.53;5047133;28;20077;-50
2022/03/16 07:30:49;;;;;;;24.48;16.80;;;;;;;7.66;100.00;97247.44;5047903;28;20057;-53
2022/03/16 07:33:19;;;;;;;25.35;18.95;;;;;;;7.63;100.00;97251.09;5048274;28;20065;-49
2022/03/16 07:35:49;;;;;;;26.83;18.75;;;;;;;7.83;100.00;97247.09;5049927;28;20629;-52
2022/03/16 07:38:19;;;;;;;23.83;17.70;;;;;;;7.96;100.00;97245.28;5051280;28;20088;-51
2022/03/16 07:40:48;;;;;;;25.98;18.92;;;;;;;7.85;100.00;97243.41;5048089;28;20088;-48
2022/03/16 07:43:16;;;;;;;25.50;18.02;;;;;;;8.12;100.00;97242.41;5047754;28;20080;-48
2022/03/16 07:45:44;;;;;;;25.90;18.67;;;;;;;8.24;100.00;97241.50;5048131;28;20065;-52
2022/03/16 07:48:13;;;;;;;23.88;18.05;;;;;;;8.11;100.00;97251.22;5048296;28;20510;-49
2022/03/16 07:50:42;;;;;;;25.13;18.77;;;;;;;8.20;100.00;97249.72;5048299;28;20053;-45
2022/03/16 07:53:10;;;;;;;23.45;17.60;;;;;;;8.10;100.00;97246.91;5049657;28;20180;-50
2022/03/16 07:55:39;;;;;;;22.17;16.13;;;;;;;7.98;100.00;97247.78;5053136;28;20095;-54
2022/03/16 07:58:07;;;;;;;23.33;16.35;;;;;;;7.90;100.00;97253.59;5051823;28;20452;-49
2022/03/16 08:00:35;;;;;;;20.75;15.60;;;;;;;7.75;100.00;97255.50;5051611;28;20088;-54
2022/03/16 08:03:04;;;;;;;20.67;16.13;;;;;;;8.15;100.00;97251.84;5052010;28;20061;-49
2022/03/16 08:05:33;;;;;;;19.40;15.05;;;;;;;8.13;100.00;97248.50;5050686;28;20072;-47
2022/03/16 08:08:03;;;;;;;20.08;15.20;;;;;;;8.13;100.00;97259.00;5052735;28;20065;-45
2022/03/16 08:10:31;;;;;;;19.00;15.35;;;;;;;8.70;100.00;97250.47;5051470;28;20075;-45
2022/03/16 08:12:59;;;;;;;19.95;15.73;;;;;;;8.62;100.00;97258.94;5051865;28;20079;-46
2022/03/16 08:15:27;;;;;;;18.40;14.07;;;;;;;9.12;100.00;97251.69;5052006;28;20065;-51
2022/03/16 08:17:56;;;;;;;17.20;14.45;;;;;;;9.14;100.00;97255.03;5051022;28;20091;-53
2022/03/16 08:20:24;;;;;;;16.90;13.35;;;;;;;8.77;100.00;97251.69;5051334;28;20091;-48
2022/03/16 08:22:56;;;;;;;16.17;13.07;;;;;;;9.15;100.00;97251.47;5051359;28;20076;-56
2022/03/16 08:25:47;;;;;;;17.08;13.35;;;;;;;9.47;100.00;97235.00;5050405;28;20611;-53
2022/03/16 08:28:15;;;;;;;15.98;13.25;;;;;;;9.64;100.00;97242.44;5048131;28;20092;-50
2022/03/16 08:30:43;;;;;;;18.02;12.98;;;;;;;9.27;100.00;97245.25;5051089;28;20079;-49
2022/03/16 08:33:11;;;;;;;16.63;12.57;;;;;;;9.21;100.00;97244.88;5051379;28;20061;-46
2022/03/16 08:35:40;;;;;;;14.98;12.07;;;;;;;9.07;100.00;97253.00;5050876;28;20107;-51
2022/03/16 08:38:08;;;;;;;17.35;12.40;;;;;;;9.70;100.00;97246.38;5051040;28;21396;-47
2022/03/16 08:40:37;;;;;;;17.25;13.90;;;;;;;9.41;100.00;97249.47;5051201;28;20077;-50
2022/03/16 08:43:07;;;;;;;15.63;13.23;;;;;;;9.69;100.00;97258.69;5051175;28;20680;-51
2022/03/16 08:45:39;;;;;;;15.23;12.40;;;;;;;9.72;100.00;97247.09;5051390;28;20065;-52
2022/03/16 08:48:08;;;;;;;16.27;13.53;;;;;;;9.48;100.00;97253.31;5050997;28;20569;-54
2022/03/16 08:50:36;;;;;;;17.67;13.75;;;;;;;9.66;100.00;97253.66;5051259;28;20084;-50
2022/03/16 08:53:05;;;;;;;18.02;15.75;;;;;;;9.00;100.00;97258.72;5052042;28;20073;-49
2022/03/16 08:55:33;;;;;;;16.15;13.38;;;;;;;9.26;100.00;97267.28;5053227;28;20065;-48
2022/03/16 08:58:01;;;;;;;16.63;13.60;;;;;;;9.13;100.00;97263.06;5050809;28;20538;-50
2022/03/16 09:00:32;;;;;;;17.13;13.48;;;;;;;9.10;100.00;97269.38;5050716;28;20080;-47
2022/03/16 09:03:00;;;;;;;17.80;14.07;;;;;;;9.55;100.00;97258.94;5047738;28;20073;-49
2022/03/16 09:05:29;;;;;;;16.60;12.65;;;;;;;9.11;100.00;97272.84;5050113;28;20703;-50
2022/03/16 09:07:57;;;;;;;17.02;14.13;;;;;;;9.31;100.00;97263.44;5049330;28;20057;-52
2022/03/16 09:10:27;;;;;;;19.00;13.45;;;;;;;9.98;100.00;97255.59;5050248;28;20076;-47
2022/03/16 09:12:55;;;;;;;18.83;14.70;;;;;;;9.87;100.00;97261.69;5050353;28;20543;-48
2022/03/16 09:15:23;;;;;;;16.52;13.43;;;;;;;9.68;100.00;97264.09;5050515;28;20068;-45
2022/03/16 09:17:53;;;;;;;17.58;13.88;;;;;;;9.72;100.00;97263.72;5050505;28;20302;-52
2022/03/16 09:20:22;;;;;;;17.98;14.10;;;;;;;9.15;100.00;97271.66;5050509;28;20080;-45
2022/03/16 09:22:50;;;;;;;19.17;14.90;;;;;;;9.18;100.00;97263.53;5050016;28;20072;-52
2022/03/16 09:25:19;;;;;;;18.33;14.23;;;;;;;9.43;100.00;97257.25;5050491;28;20451;-52
2022/03/16 09:27:47;;;;;;;17.92;15.05;;;;;;;9.37;100.00;97266.47;5050524;28;20095;-49
2022/03/16 09:30:15;;;;;;;20.23;15.07;;;;;;;9.37;100.00;97268.25;5049676;28;20068;-46
2022/03/16 09:32:44;;;;;;;19.77;15.52;;;;;;;9.30;100.00;97273.16;5050184;28;20080;-50
2022/03/16 09:35:13;;;;;;;20.55;15.80;;;;;;;9.38;100.00;97254.13;5050312;28;20072;-45
2022/03/16 09:37:41;;;;;;;19.65;15.13;;;;;;;9.31;100.00;97266.91;5053330;28;20072;-48
2022/03/16 09:40:10;;;;;;;20.13;16.25;;;;;;;9.42;100.00;97261.66;5045992;28;20503;-52
2022/03/16 09:42:38;;;;;;;19.00;16.13;;;;;;;9.38;100.00;97256.75;5043604;28;20072;-49
2022/03/16 09:45:10;;;;;;;21.05;16.30;;;;;;;9.45;100.00;97266.69;5043769;28;20061;-49
2022/03/16 09:47:39;;;;;;;19.48;15.90;;;;;;;9.37;100.00;97261.19;5044270;28;20084;-45
2022/03/16 09:50:08;;;;;;;21.15;15.52;;;;;;;9.68;100.00;97249.13;5048696;28;20473;-48
2022/03/16 09:52:38;;;;;;;21.38;17.02;;;;;;;9.76;100.00;97259.06;5049046;28;20074;-50
2022/03/16 09:55:08;;;;;;;20.75;17.00;;;;;;;9.77;100.00;97254.63;5053539;28;20068;-46
2022/03/16 09:57:36;;;;;;;20.70;17.00;;;;;;;9.82;100.00;97247.22;5048867;28;20060;-51
2022/03/16 10:00:06;;;;;;;20.88;16.92;;;;;;;9.37;100.00;97252.47;5044092;28;20069;-51
2022/03/16 10:02:34;;;;;;;20.35;15.52;;;;;;;9.77;100.00;97252.81;5049690;28;20079;-46
2022/03/16 10:05:06;;;;;;;18.63;15.35;;;;;;;9.81;100.00;97245.56;5050082;28;20488;-53
2022/03/16 10:07:36;;;;;;;21.23;17.25;;;;;;;9.80;100.00;97249.94;5049247;28;20060;-47
2022/03/16 10:15:39;;;;;;;22.13;17.52;;;;;;;9.53;100.00;97252.94;5049379;28;20068;-53
2022/03/16 10:18:07;;;;;;;23.73;18.08;;;;;;;10.02;100.00;97248.28;5047327;28;20068;-52
2022/03/16 10:20:37;;;;;;;23.33;17.90;;;;;;;10.25;100.00;97244.63;5049557;28;20080;-49
2022/03/16 10:23:07;;;;;;;20.85;16.83;;;;;;;10.12;100.00;97246.59;5049122;28;20080;-52
2022/03/16 10:25:38;;;;;;;22.00;17.15;;;;;;;10.23;100.00;97234.22;5048908;28;20072;-46
2022/03/16 10:28:11;;;;;;;22.35;17.60;;;;;;;9.89;100.00;97232.59;5048517;28;20072;-48
2022/03/16 10:30:55;;;;;;;21.50;17.10;;;;;;;10.22;100.00;97226.44;5048682;28;20064;-46
2022/03/16 10:33:26;;;;;;;21.10;16.90;;;;;;;10.82;100.00;97240.06;5048734;28;20075;-47
2022/03/16 10:36:00;;;;;;;21.25;16.50;;;;;;;10.26;100.00;97229.72;5050758;28;20088;-53
2022/03/16 10:38:29;;;;;;;21.17;17.23;;;;;;;10.91;100.00;97218.19;5047684;28;20096;-50
2022/03/16 10:46:49;;;;;;;19.17;15.98;;;;;;;11.02;100.00;97212.00;5043744;28;20044;-50
2022/03/16 10:49:20;;;;;;;22.63;18.70;;;;;;;10.95;100.00;97218.78;5048689;28;20067;-50
2022/03/16 10:52:00;;;;;;;21.25;17.95;;;;;;;11.69;100.00;97210.69;5048887;28;20463;-51
2022/03/16 10:54:28;;;;;;;20.92;16.02;;;;;;;11.71;100.00;97214.03;5049463;28;20065;-51
2022/03/16 10:57:02;;;;;;;21.83;17.48;;;;;;;12.13;100.00;97220.03;5048475;28;20095;-49
2022/03/16 10:59:32;;;;;;;21.00;17.85;;;;;;;12.93;100.00;97215.50;5048908;28;20550;-50
2022/03/16 11:02:03;;;;;;;21.70;17.80;;;;;;;11.72;100.00;97218.34;5048282;28;20065;-47
2022/03/16 11:04:33;;;;;;;20.65;17.50;;;;;;;11.91;100.00;97215.00;5048606;28;20084;-52
2022/03/16 11:07:04;;;;;;;22.80;18.55;;;;;;;11.53;100.00;97211.19;5052873;28;20060;-51
2022/03/16 11:09:34;;;;;;;20.50;17.05;;;;;;;11.54;100.00;97211.03;5047946;28;20079;-47
2022/03/16 11:15:01;;;;;;;22.75;18.92;;;;;;;11.69;100.00;97202.75;5045610;28;20045;-51
2022/03/16 11:17:32;;;;;;;21.02;17.17;;;;;;;11.82;100.00;97198.91;5048763;28;20455;-51
2022/03/16 11:20:02;;;;;;;20.77;17.17;;;;;;;11.31;100.00;97191.88;5047703;28;20068;-45
2022/03/16 11:22:34;;;;;;;26.67;19.67;;;;;;;11.35;100.00;97187.16;5048139;28;20099;-47
2022/03/16 11:25:07;;;;;;;23.20;18.75;;;;;;;11.73;100.00;97183.03;5048450;28;20065;-51
2022/03/16 11:27:48;;;;;;;23.40;19.98;;;;;;;11.98;100.00;97190.53;5047752;28;20067;-48
2022/03/16 11:30:25;;;;;;;21.33;17.38;;;;;;;12.09;100.00;97184.28;5044905;28;20068;-52
2022/03/16 11:32:59;;;;;;;23.30;18.38;;;;;;;11.76;100.00;97186.22;5052431;28;20088;-55
2022/03/16 11:35:33;;;;;;;23.00;19.08;;;;;;;11.97;100.00;97183.53;5052686;28;20085;-47
2022/03/16 11:38:03;;;;;;;22.83;18.63;;;;;;;12.14;100.00;97183.84;5053837;28;20057;-46
2022/03/16 11:40:31;;;;;;;23.42;19.95;;;;;;;12.60;100.00;97180.56;5050466;28;20523;-45
2022/03/16 11:43:19;;;;;;;23.88;19.80;;;;;;;12.80;100.00;97184.03;5052354;28;20065;-50
2022/03/16 11:45:50;;;;;;;23.60;18.90;;;;;;;12.04;100.00;97179.41;5046249;28;20092;-50
2022/03/16 11:48:40;;;;;;;22.75;19.90;;;;;;;11.95;100.00;97177.56;5051669;28;20562;-46
2022/03/16 11:51:26;;;;;;;22.58;19.10;;;;;;;12.26;100.00;97173.03;5050002;28;20068;-50